LPPS/PXO METAR and TAF weather

Enter ICAO airport designator
Station Type Date Time Source
LPPS METAR 2022/08/16 19:30 UTC NOAA

LPPS 161930Z 03018KT 9999 BKN012 23/20 Q1017


Station Type Date Time Source
LPPS Decoded METAR 2022/08/16 19:30 UTC NOAA

Porto Santo, Portugal (LPPS) 33-04N 016-21W 82M
Aug 16, 2022 - 03:30 PM EDT / 2022.08.16 1930 UTC
Wind: from the NNE (030 degrees) at 21 MPH (18 KT):0
Visibility: greater than 7 mile(s):0
Sky conditions: mostly cloudy
Temperature: 73 F (23 C)
Dew Point: 68 F (20 C)
Relative Humidity: 83%
Pressure (altimeter): 30.03 in. Hg (1017 hPa)
ob: LPPS 161930Z 03018KT 9999 BKN012 23/20 Q1017
cycle: 19

Station Type Date Time Source
LPPS TAF 2022/08/16 18:18 UTC NOAA

TAF LPPS 161700Z 1618/1724 02012KT 9999 SCT012 SCT035 PROB40
TEMPO 1618/1708 8000 SHRA BKN012

Example: see airport list